createdAt,value
2019-03-06T00:00:13.858Z,57.36
2019-03-06T00:02:39.713Z,57.34
2019-03-06T00:05:06.153Z,57.29
2019-03-06T00:07:32.235Z,57.27
2019-03-06T00:09:58.087Z,57.25
2019-03-06T00:12:24.063Z,57.15
2019-03-06T00:14:50.122Z,57.23
2019-03-06T00:17:16.078Z,57.32
2019-03-06T00:19:41.947Z,57.30
2019-03-06T00:22:07.876Z,57.34
2019-03-06T00:24:33.822Z,57.41
2019-03-06T00:27:00.048Z,57.43
2019-03-06T00:29:27.888Z,57.36
2019-03-06T00:31:53.722Z,57.43
2019-03-06T00:34:19.620Z,57.54
2019-03-06T00:36:47.533Z,57.57
2019-03-06T00:39:13.480Z,57.56
2019-03-06T00:41:41.845Z,57.53
2019-03-06T00:44:07.868Z,57.55
2019-03-06T00:46:33.758Z,57.53
2019-03-06T00:48:59.744Z,57.54
2019-03-06T00:51:25.802Z,57.52
2019-03-06T00:53:51.658Z,57.50
2019-03-06T00:56:18.564Z,57.50
2019-03-06T00:58:44.610Z,57.58
2019-03-06T01:01:10.561Z,57.60
2019-03-06T01:03:36.438Z,57.61
2019-03-06T01:06:02.583Z,57.60
2019-03-06T01:08:28.532Z,57.61
2019-03-06T01:10:54.387Z,57.59
2019-03-06T01:13:20.519Z,57.59
2019-03-06T01:15:46.379Z,57.58
2019-03-06T01:18:12.246Z,57.61
2019-03-06T01:20:38.382Z,57.55
2019-03-06T01:23:04.232Z,57.54
2019-03-06T01:25:30.108Z,57.50
2019-03-06T01:27:56.577Z,57.56
2019-03-06T01:30:23.144Z,57.59
2019-03-06T01:32:58.177Z,57.54
2019-03-06T01:35:34.850Z,57.54
2019-03-06T01:38:05.512Z,57.67
2019-03-06T01:40:36.241Z,57.55
2019-03-06T01:43:12.880Z,57.72
2019-03-06T01:45:38.851Z,57.81
2019-03-06T01:48:04.781Z,57.79
2019-03-06T01:50:30.662Z,57.76
2019-03-06T01:52:56.781Z,57.68
2019-03-06T01:55:22.734Z,57.70
2019-03-06T01:57:48.739Z,57.63
2019-03-06T02:00:15.710Z,57.62
2019-03-06T02:02:41.650Z,57.57
2019-03-06T02:05:09.057Z,57.67
2019-03-06T02:07:35.106Z,57.69
2019-03-06T02:10:01.104Z,57.68
2019-03-06T02:12:27.090Z,57.64
2019-03-06T02:14:53.051Z,57.58
2019-03-06T02:17:18.982Z,57.56
2019-03-06T02:19:45.098Z,57.59
2019-03-06T02:22:11.158Z,57.60
2019-03-06T02:24:37.110Z,57.61
2019-03-06T02:27:03.251Z,57.61
2019-03-06T02:29:29.231Z,57.63
2019-03-06T02:31:55.093Z,57.68
2019-03-06T02:34:21.101Z,57.73
2019-03-06T02:36:47.317Z,57.69
2019-03-06T02:39:13.270Z,57.67
2019-03-06T02:41:39.178Z,57.70
2019-03-06T02:44:05.229Z,57.66
2019-03-06T02:46:31.193Z,57.67
2019-03-06T02:48:57.180Z,57.72
2019-03-06T02:51:23.231Z,57.72
2019-03-06T02:53:49.108Z,57.74
2019-03-06T02:56:14.997Z,57.71
2019-03-06T02:58:48.660Z,57.71
2019-03-06T03:01:19.303Z,57.67
2019-03-06T03:04:03.790Z,57.63
2019-03-06T03:06:37.326Z,57.62
2019-03-06T03:09:05.360Z,57.59
2019-03-06T03:11:31.337Z,57.58
2019-03-06T03:13:57.186Z,57.58
2019-03-06T03:16:23.343Z,57.56
2019-03-06T03:18:49.201Z,57.54
2019-03-06T03:21:15.385Z,57.52
2019-03-06T03:23:41.326Z,57.50
2019-03-06T03:26:07.171Z,57.50
2019-03-06T03:28:33.881Z,57.47
2019-03-06T03:30:59.895Z,57.48
2019-03-06T03:33:25.845Z,57.49
2019-03-06T03:35:51.677Z,57.47
2019-03-06T03:38:17.880Z,57.45
2019-03-06T03:40:43.731Z,57.47
2019-03-06T03:43:09.687Z,57.47
2019-03-06T03:45:35.620Z,57.45
2019-03-06T03:48:01.581Z,57.46
2019-03-06T03:50:27.473Z,57.46
2019-03-06T03:52:54.271Z,57.45
2019-03-06T03:55:20.226Z,57.45
2019-03-06T03:57:46.118Z,57.48
2019-03-06T04:00:21.341Z,57.46
2019-03-06T04:02:47.417Z,57.46
2019-03-06T04:05:13.387Z,57.46
2019-03-06T04:07:39.529Z,57.47
2019-03-06T04:10:07.353Z,57.46
2019-03-06T04:12:34.356Z,57.45
2019-03-06T04:15:00.518Z,57.49
2019-03-06T04:17:26.374Z,57.48
2019-03-06T04:19:52.421Z,57.51
2019-03-06T04:22:18.537Z,57.50
2019-03-06T04:24:44.421Z,57.50
2019-03-06T04:27:10.251Z,57.52
2019-03-06T04:29:36.222Z,57.49
2019-03-06T04:32:02.188Z,57.50
2019-03-06T04:34:28.022Z,57.56
2019-03-06T04:36:54.070Z,57.55
2019-03-06T04:39:19.914Z,57.47
2019-03-06T04:41:45.884Z,57.38
2019-03-06T04:44:11.981Z,57.27
2019-03-06T04:46:37.827Z,57.28
2019-03-06T04:49:03.662Z,57.31
2019-03-06T04:51:29.809Z,57.28
2019-03-06T04:53:55.673Z,57.35
2019-03-06T04:56:21.519Z,57.30
2019-03-06T04:58:47.507Z,57.32
2019-03-06T05:01:13.474Z,57.37
2019-03-06T05:03:39.436Z,57.38
2019-03-06T05:06:05.633Z,57.27
2019-03-06T05:08:31.599Z,57.36
2019-03-06T05:10:57.451Z,57.40
2019-03-06T05:13:25.259Z,57.43
2019-03-06T05:15:51.183Z,57.50
2019-03-06T05:18:18.954Z,57.50
2019-03-06T05:20:45.005Z,57.49
2019-03-06T05:23:11.061Z,57.47
2019-03-06T05:25:36.912Z,57.57
2019-03-06T05:28:02.862Z,57.60
2019-03-06T05:30:29.829Z,57.57
2019-03-06T05:33:00.515Z,57.57
2019-03-06T05:35:28.356Z,57.55
2019-03-06T05:37:59.134Z,57.62
2019-03-06T05:40:25.016Z,57.67
2019-03-06T05:42:50.965Z,57.64
2019-03-06T05:45:16.835Z,57.62
2019-03-06T05:47:42.688Z,57.63
2019-03-06T05:50:08.729Z,57.65
2019-03-06T05:52:34.588Z,57.54
2019-03-06T05:55:00.455Z,57.56
2019-03-06T05:57:26.499Z,57.59
2019-03-06T05:59:52.338Z,57.70
2019-03-06T06:02:18.174Z,57.76
2019-03-06T06:04:44.199Z,57.74
2019-03-06T06:07:10.295Z,57.70
2019-03-06T06:09:36.159Z,57.69
2019-03-06T06:12:02.402Z,57.68
2019-03-06T06:14:28.253Z,57.69
2019-03-06T06:16:55.593Z,57.69
2019-03-06T06:19:21.732Z,57.67
2019-03-06T06:21:55.739Z,57.67
2019-03-06T06:24:21.801Z,57.65
2019-03-06T06:26:47.748Z,57.60
2019-03-06T06:29:13.699Z,57.62
2019-03-06T06:31:39.670Z,57.62
2019-03-06T06:34:05.724Z,57.64
2019-03-06T06:36:31.798Z,57.62
2019-03-06T06:38:57.630Z,57.58
2019-03-06T06:41:23.647Z,57.57
2019-03-06T06:43:49.476Z,57.59
2019-03-06T06:46:15.311Z,57.55
2019-03-06T06:48:41.381Z,57.55
2019-03-06T06:51:09.121Z,57.54
2019-03-06T06:53:48.949Z,57.51
2019-03-06T06:56:16.750Z,57.46
2019-03-06T06:59:01.294Z,57.50
2019-03-06T07:01:50.608Z,57.55
2019-03-06T07:04:34.998Z,57.55
2019-03-06T07:07:18.067Z,57.49
2019-03-06T07:09:57.760Z,57.49
2019-03-06T07:12:28.171Z,57.45
2019-03-06T07:14:56.990Z,57.48
2019-03-06T07:17:25.352Z,57.51
2019-03-06T07:19:53.190Z,57.47
2019-03-06T07:22:27.001Z,57.39
2019-03-06T07:25:01.183Z,57.44
2019-03-06T07:27:31.796Z,57.37
2019-03-06T07:29:59.762Z,57.42
2019-03-06T07:32:44.037Z,57.48
2019-03-06T07:35:42.322Z,57.44
2019-03-06T07:38:09.151Z,57.44
2019-03-06T07:40:39.814Z,57.32
2019-03-06T07:43:07.580Z,57.35
2019-03-06T07:45:52.018Z,57.42
2019-03-06T07:48:31.483Z,57.44
2019-03-06T07:51:11.515Z,57.43
2019-03-06T07:54:03.174Z,57.35
2019-03-06T07:56:43.062Z,57.31
2019-03-06T07:59:08.928Z,57.28
2019-03-06T08:01:39.206Z,57.23
2019-03-06T08:04:06.225Z,57.22
2019-03-06T08:06:32.210Z,57.26
2019-03-06T08:08:58.179Z,57.28
2019-03-06T08:11:29.103Z,57.28
2019-03-06T08:13:56.842Z,57.24
2019-03-06T08:16:24.614Z,57.24
2019-03-06T08:19:02.145Z,57.21
2019-03-06T08:21:32.520Z,57.21
2019-03-06T08:24:06.390Z,57.17
2019-03-06T08:26:32.241Z,57.11
2019-03-06T08:28:58.098Z,57.07
2019-03-06T08:31:28.899Z,57.05
2019-03-06T08:33:54.848Z,57.08
2019-03-06T08:36:20.695Z,57.08
2019-03-06T08:38:46.671Z,57.07
2019-03-06T08:41:12.547Z,57.07
2019-03-06T08:43:38.511Z,56.98
2019-03-06T08:46:18.451Z,56.94
2019-03-06T08:48:54.897Z,56.97
2019-03-06T08:51:31.740Z,56.96
2019-03-06T08:54:11.487Z,56.93
2019-03-06T08:56:39.436Z,56.95
2019-03-06T08:59:25.396Z,56.96
2019-03-06T09:02:15.518Z,56.98
2019-03-06T09:04:45.283Z,56.96
2019-03-06T09:07:13.666Z,56.89
2019-03-06T09:09:54.199Z,56.92
2019-03-06T09:12:34.250Z,56.93
2019-03-06T09:15:18.902Z,56.88
2019-03-06T09:18:09.099Z,56.87
2019-03-06T09:20:40.024Z,56.94
2019-03-06T09:23:22.614Z,56.95
2019-03-06T09:25:46.567Z,56.92
2019-03-06T09:28:20.684Z,56.92
2019-03-06T09:30:54.364Z,56.92
2019-03-06T09:33:22.310Z,56.88
2019-03-06T09:35:50.068Z,56.83
2019-03-06T09:38:24.545Z,56.86
2019-03-06T09:41:08.835Z,56.81
2019-03-06T09:43:53.204Z,56.81
2019-03-06T09:46:23.583Z,56.68
2019-03-06T09:48:51.558Z,56.60
2019-03-06T09:51:25.386Z,56.57
2019-03-06T09:53:56.017Z,56.56
2019-03-06T09:56:23.778Z,56.45
2019-03-06T09:59:03.492Z,56.26
2019-03-06T10:01:34.131Z,56.28
2019-03-06T10:04:01.971Z,56.29
2019-03-06T10:06:38.662Z,56.22
2019-03-06T10:09:17.224Z,56.12
2019-03-06T10:11:45.095Z,55.90
2019-03-06T10:14:13.029Z,55.86
2019-03-06T10:16:48.606Z,55.86
2019-03-06T10:19:19.412Z,55.87
2019-03-06T10:21:45.288Z,55.78
2019-03-06T10:24:11.246Z,55.78
2019-03-06T10:26:37.312Z,55.70
2019-03-06T10:29:03.287Z,55.43
2019-03-06T10:31:29.144Z,55.44
2019-03-06T10:33:55.101Z,55.45
2019-03-06T10:36:21.224Z,55.45
2019-03-06T10:38:47.074Z,55.30
2019-03-06T10:41:13.337Z,55.29
2019-03-06T10:43:39.329Z,55.28
2019-03-06T10:46:05.467Z,55.26
2019-03-06T10:48:31.528Z,55.22
2019-03-06T10:50:57.588Z,55.05
2019-03-06T10:53:23.553Z,54.88
2019-03-06T10:55:49.833Z,54.87
2019-03-06T10:58:15.813Z,54.89
2019-03-06T11:00:43.650Z,54.96
2019-03-06T11:03:09.784Z,54.93
2019-03-06T11:05:36.053Z,54.76
2019-03-06T11:08:02.881Z,54.66
2019-03-06T11:10:30.633Z,54.64
2019-03-06T11:12:57.292Z,54.54
2019-03-06T11:15:24.303Z,54.63
2019-03-06T11:17:50.644Z,54.72
2019-03-06T11:20:30.004Z,54.43
2019-03-06T11:22:56.917Z,54.32
2019-03-06T11:25:23.760Z,54.22
2019-03-06T11:27:49.802Z,54.20
2019-03-06T11:30:17.859Z,54.14
2019-03-06T11:32:44.017Z,54.21
2019-03-06T11:35:11.770Z,54.29
2019-03-06T11:37:37.856Z,54.25
2019-03-06T11:40:05.602Z,53.62
2019-03-06T11:42:31.480Z,53.71
2019-03-06T11:44:57.568Z,53.63
2019-03-06T11:47:23.808Z,53.66
2019-03-06T11:49:49.684Z,53.74
2019-03-06T11:52:15.744Z,53.70
2019-03-06T11:54:41.609Z,53.70
2019-03-06T11:57:07.487Z,53.45
2019-03-06T11:59:33.472Z,53.43
2019-03-06T12:01:59.432Z,53.30
2019-03-06T12:04:25.303Z,53.36
2019-03-06T12:06:51.682Z,53.24
2019-03-06T12:09:19.519Z,53.26
2019-03-06T12:11:45.458Z,53.37
2019-03-06T12:14:11.520Z,53.24
2019-03-06T12:16:41.867Z,53.12
2019-03-06T12:19:05.161Z,52.99
2019-03-06T12:21:31.323Z,53.04
2019-03-06T12:23:57.178Z,52.91
2019-03-06T12:26:23.340Z,52.88
2019-03-06T12:28:49.498Z,52.77
2019-03-06T12:31:15.456Z,52.79
2019-03-06T12:33:41.427Z,52.86
2019-03-06T12:36:07.537Z,52.79
2019-03-06T12:38:33.597Z,52.92
2019-03-06T12:40:59.551Z,52.92
2019-03-06T12:43:25.638Z,52.79
2019-03-06T12:46:11.320Z,52.75
2019-03-06T12:48:37.588Z,52.76
2019-03-06T12:51:04.372Z,52.69
2019-03-06T12:53:30.410Z,52.16
2019-03-06T12:55:56.663Z,52.07
2019-03-06T12:58:22.506Z,52.21
2019-03-06T13:00:48.369Z,52.18
2019-03-06T13:03:14.438Z,52.08
2019-03-06T13:05:40.288Z,51.88
2019-03-06T13:08:06.253Z,52.14
2019-03-06T13:10:32.736Z,52.00
2019-03-06T13:12:58.594Z,52.00
2019-03-06T13:15:24.753Z,51.97
2019-03-06T13:17:51.494Z,51.82
2019-03-06T13:20:17.492Z,51.64
2019-03-06T13:22:43.451Z,51.91
2019-03-06T13:25:10.590Z,51.42
2019-03-06T13:27:36.568Z,51.23
2019-03-06T13:30:04.114Z,51.00
2019-03-06T13:32:48.644Z,50.95
2019-03-06T13:35:14.701Z,51.19
2019-03-06T13:37:40.657Z,51.28
2019-03-06T13:40:06.706Z,51.25
2019-03-06T13:42:32.557Z,50.90
2019-03-06T13:44:58.404Z,51.09
2019-03-06T13:47:24.559Z,50.72
2019-03-06T13:49:50.607Z,51.04
2019-03-06T13:52:16.469Z,51.12
2019-03-06T13:54:42.529Z,50.92
2019-03-06T13:57:08.503Z,50.75
2019-03-06T13:59:34.460Z,50.58
2019-03-06T14:02:00.495Z,50.49
2019-03-06T14:04:26.648Z,50.58
2019-03-06T14:06:52.498Z,50.68
2019-03-06T14:09:18.640Z,50.73
2019-03-06T14:11:44.783Z,50.71
2019-03-06T14:14:10.660Z,50.60
2019-03-06T14:16:36.810Z,50.60
2019-03-06T14:19:02.869Z,50.55
2019-03-06T14:21:28.817Z,50.75
2019-03-06T14:23:54.861Z,50.72
2019-03-06T14:26:20.832Z,50.91
2019-03-06T14:28:46.794Z,50.89
2019-03-06T14:31:13.245Z,51.01
2019-03-06T14:33:39.198Z,51.08
2019-03-06T14:36:05.133Z,51.00
2019-03-06T14:38:32.261Z,51.19
2019-03-06T14:40:58.220Z,51.31
2019-03-06T14:43:24.085Z,51.30
2019-03-06T14:45:50.275Z,51.48
2019-03-06T14:48:16.442Z,51.44
2019-03-06T14:50:42.503Z,51.51
2019-03-06T14:53:08.470Z,51.38
2019-03-06T14:55:34.937Z,51.27
2019-03-06T14:58:00.866Z,51.44
2019-03-06T15:00:26.950Z,51.59
2019-03-06T15:02:52.889Z,51.73
2019-03-06T15:05:19.352Z,51.73
2019-03-06T15:07:45.580Z,51.84
2019-03-06T15:10:15.290Z,51.91
2019-03-06T15:12:41.227Z,51.92
2019-03-06T15:15:11.532Z,51.99
2019-03-06T15:17:37.492Z,52.06
2019-03-06T15:20:05.251Z,52.09
2019-03-06T15:22:38.413Z,52.13
2019-03-06T15:24:59.051Z,52.15
2019-03-06T15:27:24.913Z,52.20
2019-03-06T15:29:50.956Z,52.20
2019-03-06T15:32:16.921Z,52.12
2019-03-06T15:34:42.808Z,52.15
2019-03-06T15:37:08.945Z,52.19
2019-03-06T15:39:42.574Z,52.17
2019-03-06T15:42:02.676Z,52.26
2019-03-06T15:44:29.206Z,52.23
2019-03-06T15:46:55.076Z,52.32
2019-03-06T15:49:21.030Z,52.36
2019-03-06T15:51:47.172Z,52.36
2019-03-06T15:54:13.179Z,52.42
2019-03-06T15:56:39.013Z,52.45
2019-03-06T15:59:14.365Z,52.44
2019-03-06T16:01:33.357Z,52.44
2019-03-06T16:03:59.310Z,52.31
2019-03-06T16:06:25.491Z,52.50
2019-03-06T16:08:51.365Z,52.61
2019-03-06T16:11:17.372Z,52.61
2019-03-06T16:13:43.504Z,52.57
2019-03-06T16:16:09.573Z,52.54
2019-03-06T16:18:35.519Z,52.57
2019-03-06T16:21:01.904Z,52.75
2019-03-06T16:23:27.994Z,52.86
2019-03-06T16:25:54.025Z,52.71
2019-03-06T16:28:20.105Z,52.82
2019-03-06T16:30:46.278Z,52.91
2019-03-06T16:33:12.146Z,52.82
2019-03-06T16:35:38.168Z,52.93
2019-03-06T16:38:04.181Z,53.00
2019-03-06T16:40:30.623Z,52.87
2019-03-06T16:42:56.784Z,53.03
2019-03-06T16:45:24.866Z,52.95
2019-03-06T16:47:50.808Z,52.97
2019-03-06T16:50:20.264Z,52.97
2019-03-06T16:52:46.337Z,53.13
2019-03-06T16:55:14.076Z,53.14
2019-03-06T16:57:40.103Z,53.09
2019-03-06T17:00:13.846Z,52.93
2019-03-06T17:02:39.753Z,52.91
2019-03-06T17:05:05.919Z,52.99
2019-03-06T17:07:31.900Z,52.92
2019-03-06T17:09:57.879Z,53.01
2019-03-06T17:12:24.842Z,53.01
2019-03-06T17:14:50.813Z,53.11
2019-03-06T17:17:16.897Z,53.13
2019-03-06T17:19:42.853Z,53.13
2019-03-06T17:22:08.719Z,53.11
2019-03-06T17:24:34.784Z,53.15
2019-03-06T17:27:00.947Z,53.07
2019-03-06T17:29:26.910Z,53.04
2019-03-06T17:31:54.372Z,53.09
2019-03-06T17:34:20.383Z,53.14
2019-03-06T17:36:46.249Z,53.18
2019-03-06T17:39:12.931Z,53.17
2019-03-06T17:41:38.976Z,53.24
2019-03-06T17:44:04.934Z,53.35
2019-03-06T17:46:30.930Z,53.38
2019-03-06T17:48:56.962Z,53.47
2019-03-06T17:51:23.057Z,53.46
2019-03-06T17:53:48.976Z,53.42
2019-03-06T17:56:14.982Z,53.49
2019-03-06T17:58:40.888Z,53.56
2019-03-06T18:01:08.750Z,53.52
2019-03-06T18:03:39.570Z,53.59
2019-03-06T18:06:05.410Z,53.54
2019-03-06T18:08:31.711Z,53.53
2019-03-06T18:10:57.774Z,53.58
2019-03-06T18:13:23.612Z,53.47
2019-03-06T18:15:49.582Z,53.44
2019-03-06T18:18:15.618Z,53.52
2019-03-06T18:20:41.486Z,53.58
2019-03-06T18:23:07.487Z,53.66
2019-03-06T18:25:33.631Z,53.62
2019-03-06T18:27:59.586Z,53.49
2019-03-06T18:30:25.579Z,53.52
2019-03-06T18:32:51.817Z,53.51
2019-03-06T18:35:18.589Z,53.48
2019-03-06T18:37:45.031Z,53.63
2019-03-06T18:40:12.396Z,53.64
2019-03-06T18:42:38.266Z,53.59
2019-03-06T18:45:06.028Z,53.69
2019-03-06T18:47:32.034Z,53.68
2019-03-06T18:49:57.926Z,53.68
2019-03-06T18:52:23.820Z,53.79
2019-03-06T18:54:49.868Z,53.73
2019-03-06T18:57:15.753Z,53.67
2019-03-06T18:59:41.672Z,53.76
2019-03-06T19:02:07.741Z,53.70
2019-03-06T19:04:33.590Z,53.77
2019-03-06T19:06:59.467Z,53.75
2019-03-06T19:09:25.827Z,53.64
2019-03-06T19:11:51.774Z,53.51
2019-03-06T19:14:17.789Z,53.61
2019-03-06T19:16:43.903Z,53.69
2019-03-06T19:19:09.907Z,53.68
2019-03-06T19:21:35.855Z,53.80
2019-03-06T19:24:01.975Z,53.79
2019-03-06T19:26:28.028Z,53.80
2019-03-06T19:28:54.214Z,53.72
2019-03-06T19:31:20.195Z,53.73
2019-03-06T19:33:46.258Z,53.87
2019-03-06T19:36:12.221Z,53.94
2019-03-06T19:38:38.210Z,53.95
2019-03-06T19:41:04.171Z,53.86
2019-03-06T19:43:30.072Z,53.84
2019-03-06T19:45:56.191Z,53.79
2019-03-06T19:48:22.083Z,53.88
2019-03-06T19:50:48.377Z,54.00
2019-03-06T19:53:14.342Z,54.01
2019-03-06T19:55:40.292Z,54.02
2019-03-06T19:58:07.360Z,54.02
2019-03-06T20:00:33.461Z,53.93
2019-03-06T20:02:59.763Z,53.95
2019-03-06T20:05:34.583Z,53.95
2019-03-06T20:08:00.880Z,53.96
2019-03-06T20:10:26.838Z,53.94
2019-03-06T20:12:52.810Z,53.94
2019-03-06T20:15:18.945Z,53.80
2019-03-06T20:17:45.090Z,53.95
2019-03-06T20:20:11.803Z,53.94
2019-03-06T20:22:37.780Z,53.86
2019-03-06T20:25:04.134Z,53.86
2019-03-06T20:27:30.425Z,53.97
2019-03-06T20:29:56.491Z,53.99
2019-03-06T20:32:22.460Z,54.08
2019-03-06T20:34:49.572Z,53.92
2019-03-06T20:37:15.527Z,54.10
2019-03-06T20:39:41.480Z,54.04
2019-03-06T20:42:07.467Z,53.85
2019-03-06T20:44:33.577Z,53.87
2019-03-06T20:46:59.464Z,54.00
2019-03-06T20:49:25.887Z,54.15
2019-03-06T20:51:51.905Z,54.19
2019-03-06T20:54:17.742Z,54.16
2019-03-06T20:56:43.635Z,54.09
2019-03-06T20:59:09.643Z,54.15
2019-03-06T21:01:35.483Z,54.03
2019-03-06T21:04:01.480Z,53.92
2019-03-06T21:06:33.627Z,54.01
2019-03-06T21:08:55.140Z,54.12
2019-03-06T21:11:21.032Z,54.12
2019-03-06T21:13:47.143Z,54.06
2019-03-06T21:16:12.986Z,54.16
2019-03-06T21:18:38.953Z,54.08
2019-03-06T21:21:05.072Z,54.18
2019-03-06T21:23:30.946Z,54.26
2019-03-06T21:25:56.849Z,54.25
2019-03-06T21:28:22.848Z,54.20
2019-03-06T21:30:48.697Z,54.13
2019-03-06T21:33:14.681Z,54.05
2019-03-06T21:35:40.797Z,54.07
2019-03-06T21:38:06.957Z,54.14
2019-03-06T21:40:32.955Z,54.15
2019-03-06T21:43:00.393Z,54.17
2019-03-06T21:45:26.403Z,54.06
2019-03-06T21:47:52.401Z,54.05
2019-03-06T21:50:18.434Z,54.08
2019-03-06T21:52:44.418Z,54.11
2019-03-06T21:55:11.400Z,54.01
2019-03-06T21:57:37.521Z,53.97
2019-03-06T22:00:05.590Z,54.15
2019-03-06T22:02:31.485Z,54.21
2019-03-06T22:04:59.591Z,54.15
2019-03-06T22:07:25.445Z,54.10
2019-03-06T22:09:51.348Z,54.06
2019-03-06T22:12:17.390Z,54.02
2019-03-06T22:14:43.256Z,53.93
2019-03-06T22:17:09.116Z,53.96
2019-03-06T22:19:35.230Z,54.04
2019-03-06T22:22:01.286Z,54.02
2019-03-06T22:24:27.250Z,54.00
2019-03-06T22:26:53.419Z,53.97
2019-03-06T22:29:19.268Z,53.95
2019-03-06T22:31:45.137Z,53.92
2019-03-06T22:34:11.211Z,53.89
2019-03-06T22:36:37.199Z,53.83
2019-03-06T22:39:04.661Z,53.77
2019-03-06T22:41:30.586Z,53.96
2019-03-06T22:43:56.491Z,54.23
2019-03-06T22:46:22.625Z,54.33
2019-03-06T22:48:48.809Z,54.35
2019-03-06T22:51:14.709Z,54.31
2019-03-06T22:53:40.787Z,54.25
2019-03-06T22:56:06.816Z,54.29
2019-03-06T22:58:32.873Z,54.26
2019-03-06T23:01:01.273Z,54.26
2019-03-06T23:03:27.488Z,54.11
2019-03-06T23:05:53.451Z,54.15
2019-03-06T23:08:19.351Z,54.38
2019-03-06T23:10:45.473Z,54.42
2019-03-06T23:13:11.422Z,54.41
2019-03-06T23:15:37.617Z,54.33
2019-03-06T23:18:04.167Z,54.27
2019-03-06T23:20:30.120Z,54.33
2019-03-06T23:22:56.052Z,54.34
2019-03-06T23:25:22.159Z,54.40
2019-03-06T23:27:48.032Z,54.35
2019-03-06T23:30:14.497Z,54.30
2019-03-06T23:32:40.414Z,54.39
2019-03-06T23:35:06.581Z,54.44
2019-03-06T23:37:32.552Z,54.34
2019-03-06T23:39:58.979Z,54.61
2019-03-06T23:42:24.952Z,54.91
2019-03-06T23:44:50.924Z,54.93
2019-03-06T23:47:16.887Z,54.93
2019-03-06T23:49:43.047Z,54.77
2019-03-06T23:52:10.958Z,54.74
2019-03-06T23:54:37.020Z,54.63
2019-03-06T23:57:02.954Z,54.66
2019-03-06T23:59:28.812Z,54.96
